sensor_id;sensor_type;location;lat;lon;timestamp;P1;durP1;ratioP1;P2;durP2;ratioP2
54983;SDS011;40884;53.562;9.940;2023-05-07T00:00:54;10.60;;;9.50;;
54983;SDS011;40884;53.562;9.940;2023-05-07T00:01:54;10.90;;;9.80;;
54983;SDS011;40884;53.562;9.940;2023-05-07T00:02:54;12.90;;;10.40;;
54983;SDS011;40884;53.562;9.940;2023-05-07T00:03:54;11.80;;;10.60;;
54983;SDS011;40884;53.562;9.940;2023-05-07T00:04:54;12.23;;;10.27;;
54983;SDS011;40884;53.562;9.940;2023-05-07T00:05:54;11.50;;;10.40;;
54983;SDS011;40884;53.562;9.940;2023-05-07T00:06:55;10.97;;;9.97;;
54983;SDS011;40884;53.562;9.940;2023-05-07T00:07:55;11.37;;;10.20;;
54983;SDS011;40884;53.562;9.940;2023-05-07T00:08:56;10.63;;;9.60;;
54983;SDS011;40884;53.562;9.940;2023-05-07T00:09:56;10.60;;;9.60;;
54983;SDS011;40884;53.562;9.940;2023-05-07T00:10:56;11.03;;;10.03;;
54983;SDS011;40884;53.562;9.940;2023-05-07T00:11:56;11.80;;;10.60;;
54983;SDS011;40884;53.562;9.940;2023-05-07T00:12:56;11.07;;;9.83;;
54983;SDS011;40884;53.562;9.940;2023-05-07T00:13:57;12.73;;;11.43;;
54983;SDS011;40884;53.562;9.940;2023-05-07T00:14:57;12.30;;;11.00;;
54983;SDS011;40884;53.562;9.940;2023-05-07T00:15:57;12.53;;;10.30;;
54983;SDS011;40884;53.562;9.940;2023-05-07T00:16:57;12.20;;;10.93;;
54983;SDS011;40884;53.562;9.940;2023-05-07T00:17:57;12.17;;;10.70;;
54983;SDS011;40884;53.562;9.940;2023-05-07T00:18:57;11.20;;;10.10;;
54983;SDS011;40884;53.562;9.940;2023-05-07T00:19:58;14.63;;;11.43;;
54983;SDS011;40884;53.562;9.940;2023-05-07T00:20:58;12.43;;;10.93;;
54983;SDS011;40884;53.562;9.940;2023-05-07T00:21:58;11.80;;;10.60;;
54983;SDS011;40884;53.562;9.940;2023-05-07T00:22:58;11.80;;;10.60;;
54983;SDS011;40884;53.562;9.940;2023-05-07T00:23:58;12.00;;;10.43;;
54983;SDS011;40884;53.562;9.940;2023-05-07T00:24:58;11.73;;;9.63;;
54983;SDS011;40884;53.562;9.940;2023-05-07T00:25:58;10.40;;;9.33;;
54983;SDS011;40884;53.562;9.940;2023-05-07T00:26:58;10.97;;;9.87;;
54983;SDS011;40884;53.562;9.940;2023-05-07T00:27:59;11.10;;;9.90;;
54983;SDS011;40884;53.562;9.940;2023-05-07T00:28:59;11.53;;;9.97;;
54983;SDS011;40884;53.562;9.940;2023-05-07T00:29:59;11.73;;;10.40;;
54983;SDS011;40884;53.562;9.940;2023-05-07T00:30:59;11.33;;;10.17;;
54983;SDS011;40884;53.562;9.940;2023-05-07T00:31:59;10.47;;;9.47;;
54983;SDS011;40884;53.562;9.940;2023-05-07T00:32:59;10.67;;;9.57;;
54983;SDS011;40884;53.562;9.940;2023-05-07T00:34:00;12.23;;;10.17;;
54983;SDS011;40884;53.562;9.940;2023-05-07T00:35:00;10.43;;;9.43;;
54983;SDS011;40884;53.562;9.940;2023-05-07T00:36:00;10.70;;;9.60;;
54983;SDS011;40884;53.562;9.940;2023-05-07T00:37:01;10.50;;;9.40;;
54983;SDS011;40884;53.562;9.940;2023-05-07T00:38:01;10.83;;;9.73;;
54983;SDS011;40884;53.562;9.940;2023-05-07T00:39:01;10.40;;;9.40;;
54983;SDS011;40884;53.562;9.940;2023-05-07T00:40:02;11.37;;;10.20;;
54983;SDS011;40884;53.562;9.940;2023-05-07T00:41:02;11.07;;;9.87;;
54983;SDS011;40884;53.562;9.940;2023-05-07T00:42:02;11.17;;;10.07;;
54983;SDS011;40884;53.562;9.940;2023-05-07T00:43:02;11.33;;;10.23;;
54983;SDS011;40884;53.562;9.940;2023-05-07T00:44:02;10.97;;;9.90;;
54983;SDS011;40884;53.562;9.940;2023-05-07T00:45:02;10.63;;;9.53;;
54983;SDS011;40884;53.562;9.940;2023-05-07T00:46:03;9.83;;;8.87;;
54983;SDS011;40884;53.562;9.940;2023-05-07T00:47:03;11.37;;;9.07;;
54983;SDS011;40884;53.562;9.940;2023-05-07T00:48:04;10.63;;;9.53;;
54983;SDS011;40884;53.562;9.940;2023-05-07T00:49:04;10.20;;;9.10;;
54983;SDS011;40884;53.562;9.940;2023-05-07T00:50:05;10.00;;;8.93;;
54983;SDS011;40884;53.562;9.940;2023-05-07T00:51:05;10.33;;;8.93;;
54983;SDS011;40884;53.562;9.940;2023-05-07T00:52:06;9.73;;;8.77;;
54983;SDS011;40884;53.562;9.940;2023-05-07T00:53:06;9.97;;;8.97;;
54983;SDS011;40884;53.562;9.940;2023-05-07T00:54:06;9.67;;;8.77;;
54983;SDS011;40884;53.562;9.940;2023-05-07T00:55:07;9.87;;;8.87;;
54983;SDS011;40884;53.562;9.940;2023-05-07T00:56:07;10.70;;;8.70;;
54983;SDS011;40884;53.562;9.940;2023-05-07T00:57:09;11.07;;;9.37;;
54983;SDS011;40884;53.562;9.940;2023-05-07T00:58:09;10.03;;;9.13;;
54983;SDS011;40884;53.562;9.940;2023-05-07T00:59:09;9.63;;;8.73;;
54983;SDS011;40884;53.562;9.940;2023-05-07T01:00:10;12.10;;;9.20;;
54983;SDS011;40884;53.562;9.940;2023-05-07T01:01:10;9.57;;;8.57;;
54983;SDS011;40884;53.562;9.940;2023-05-07T01:02:10;9.33;;;8.43;;
54983;SDS011;40884;53.562;9.940;2023-05-07T01:03:11;10.30;;;8.60;;
54983;SDS011;40884;53.562;9.940;2023-05-07T01:04:11;11.60;;;9.03;;
54983;SDS011;40884;53.562;9.940;2023-05-07T01:05:11;10.83;;;9.70;;
54983;SDS011;40884;53.562;9.940;2023-05-07T01:06:12;9.83;;;8.83;;
54983;SDS011;40884;53.562;9.940;2023-05-07T01:07:13;9.20;;;8.30;;
54983;SDS011;40884;53.562;9.940;2023-05-07T01:08:13;10.50;;;8.80;;
54983;SDS011;40884;53.562;9.940;2023-05-07T01:09:13;9.50;;;8.50;;
54983;SDS011;40884;53.562;9.940;2023-05-07T01:10:14;9.63;;;8.63;;
54983;SDS011;40884;53.562;9.940;2023-05-07T01:11:14;10.63;;;9.53;;
54983;SDS011;40884;53.562;9.940;2023-05-07T01:12:15;9.63;;;8.63;;
54983;SDS011;40884;53.562;9.940;2023-05-07T01:13:15;9.40;;;8.40;;
54983;SDS011;40884;53.562;9.940;2023-05-07T01:14:16;9.00;;;8.10;;
54983;SDS011;40884;53.562;9.940;2023-05-07T01:15:16;10.00;;;8.77;;
54983;SDS011;40884;53.562;9.940;2023-05-07T01:16:17;9.80;;;8.80;;
54983;SDS011;40884;53.562;9.940;2023-05-07T01:17:17;9.90;;;8.90;;
54983;SDS011;40884;53.562;9.940;2023-05-07T01:18:19;10.10;;;9.10;;
54983;SDS011;40884;53.562;9.940;2023-05-07T01:19:19;10.00;;;9.00;;
54983;SDS011;40884;53.562;9.940;2023-05-07T01:20:19;10.13;;;9.13;;
54983;SDS011;40884;53.562;9.940;2023-05-07T01:21:23;11.77;;;8.47;;
54983;SDS011;40884;53.562;9.940;2023-05-07T01:22:28;10.03;;;9.03;;
54983;SDS011;40884;53.562;9.940;2023-05-07T01:23:28;10.20;;;9.20;;
54983;SDS011;40884;53.562;9.940;2023-05-07T01:24:30;9.43;;;8.53;;
54983;SDS011;40884;53.562;9.940;2023-05-07T01:25:30;10.00;;;8.93;;
54983;SDS011;40884;53.562;9.940;2023-05-07T01:26:33;9.37;;;8.47;;
54983;SDS011;40884;53.562;9.940;2023-05-07T01:27:33;9.07;;;8.20;;
54983;SDS011;40884;53.562;9.940;2023-05-07T01:28:33;10.40;;;9.30;;
54983;SDS011;40884;53.562;9.940;2023-05-07T01:29:34;10.03;;;9.03;;
54983;SDS011;40884;53.562;9.940;2023-05-07T01:30:34;9.57;;;8.67;;
54983;SDS011;40884;53.562;9.940;2023-05-07T01:31:38;9.07;;;8.17;;
54983;SDS011;40884;53.562;9.940;2023-05-07T01:33:40;8.90;;;8.00;;
54983;SDS011;40884;53.562;9.940;2023-05-07T01:34:41;9.00;;;8.10;;
54983;SDS011;40884;53.562;9.940;2023-05-07T01:35:43;8.47;;;7.53;;
54983;SDS011;40884;53.562;9.940;2023-05-07T01:36:45;8.70;;;7.80;;
54983;SDS011;40884;53.562;9.940;2023-05-07T01:37:46;8.10;;;7.30;;
54983;SDS011;40884;53.562;9.940;2023-05-07T01:38:47;8.30;;;7.50;;
54983;SDS011;40884;53.562;9.940;2023-05-07T01:39:47;8.70;;;7.80;;
54983;SDS011;40884;53.562;9.940;2023-05-07T01:40:47;7.63;;;6.90;;
54983;SDS011;40884;53.562;9.940;2023-05-07T01:41:48;8.00;;;7.20;;
54983;SDS011;40884;53.562;9.940;2023-05-07T01:42:48;8.83;;;7.77;;
54983;SDS011;40884;53.562;9.940;2023-05-07T01:43:48;8.57;;;7.77;;
54983;SDS011;40884;53.562;9.940;2023-05-07T01:44:49;8.70;;;7.80;;
54983;SDS011;40884;53.562;9.940;2023-05-07T01:45:50;8.30;;;7.40;;
54983;SDS011;40884;53.562;9.940;2023-05-07T01:46:50;8.00;;;7.20;;
54983;SDS011;40884;53.562;9.940;2023-05-07T01:47:50;9.23;;;7.60;;
54983;SDS011;40884;53.562;9.940;2023-05-07T01:48:51;8.40;;;7.63;;
54983;SDS011;40884;53.562;9.940;2023-05-07T01:49:51;7.83;;;7.13;;
54983;SDS011;40884;53.562;9.940;2023-05-07T01:50:52;8.43;;;7.60;;
54983;SDS011;40884;53.562;9.940;2023-05-07T01:51:52;8.13;;;7.33;;
54983;SDS011;40884;53.562;9.940;2023-05-07T01:52:52;8.87;;;7.97;;
54983;SDS011;40884;53.562;9.940;2023-05-07T01:53:52;8.17;;;7.37;;
54983;SDS011;40884;53.562;9.940;2023-05-07T01:54:53;7.93;;;7.23;;
54983;SDS011;40884;53.562;9.940;2023-05-07T01:55:53;9.03;;;8.13;;
54983;SDS011;40884;53.562;9.940;2023-05-07T01:56:56;10.97;;;7.27;;
54983;SDS011;40884;53.562;9.940;2023-05-07T01:57:56;8.13;;;7.43;;
54983;SDS011;40884;53.562;9.940;2023-05-07T01:58:56;8.07;;;7.30;;
54983;SDS011;40884;53.562;9.940;2023-05-07T01:59:56;8.30;;;7.50;;
54983;SDS011;40884;53.562;9.940;2023-05-07T02:00:56;8.07;;;7.27;;
54983;SDS011;40884;53.562;9.940;2023-05-07T02:01:56;7.97;;;7.23;;
54983;SDS011;40884;53.562;9.940;2023-05-07T02:02:57;10.90;;;7.83;;
54983;SDS011;40884;53.562;9.940;2023-05-07T02:04:06;7.47;;;6.77;;
54983;SDS011;40884;53.562;9.940;2023-05-07T02:05:06;8.10;;;7.37;;
54983;SDS011;40884;53.562;9.940;2023-05-07T02:06:06;7.97;;;7.27;;
54983;SDS011;40884;53.562;9.940;2023-05-07T02:07:09;7.43;;;6.73;;
54983;SDS011;40884;53.562;9.940;2023-05-07T02:08:09;8.57;;;7.70;;
54983;SDS011;40884;53.562;9.940;2023-05-07T02:09:09;7.93;;;7.23;;
54983;SDS011;40884;53.562;9.940;2023-05-07T02:10:11;7.83;;;7.13;;
54983;SDS011;40884;53.562;9.940;2023-05-07T02:11:11;7.93;;;7.13;;
54983;SDS011;40884;53.562;9.940;2023-05-07T02:12:11;7.93;;;7.13;;
54983;SDS011;40884;53.562;9.940;2023-05-07T02:13:12;8.10;;;7.30;;
54983;SDS011;40884;53.562;9.940;2023-05-07T02:14:12;9.57;;;8.30;;
54983;SDS011;40884;53.562;9.940;2023-05-07T02:15:12;7.43;;;6.73;;
54983;SDS011;40884;53.562;9.940;2023-05-07T02:16:12;8.30;;;7.50;;
54983;SDS011;40884;53.562;9.940;2023-05-07T02:17:13;8.40;;;7.60;;
54983;SDS011;40884;53.562;9.940;2023-05-07T02:18:13;8.30;;;7.50;;
54983;SDS011;40884;53.562;9.940;2023-05-07T02:19:13;8.47;;;7.67;;
54983;SDS011;40884;53.562;9.940;2023-05-07T02:20:13;8.80;;;7.97;;
54983;SDS011;40884;53.562;9.940;2023-05-07T02:21:15;8.30;;;7.50;;
54983;SDS011;40884;53.562;9.940;2023-05-07T02:22:15;8.60;;;7.80;;
54983;SDS011;40884;53.562;9.940;2023-05-07T02:23:15;8.77;;;7.83;;
54983;SDS011;40884;53.562;9.940;2023-05-07T02:24:15;8.60;;;7.80;;
54983;SDS011;40884;53.562;9.940;2023-05-07T02:25:16;9.30;;;8.27;;
54983;SDS011;40884;53.562;9.940;2023-05-07T02:26:16;8.40;;;7.60;;
54983;SDS011;40884;53.562;9.940;2023-05-07T02:27:16;8.57;;;7.77;;
54983;SDS011;40884;53.562;9.940;2023-05-07T02:28:18;8.67;;;7.87;;
54983;SDS011;40884;53.562;9.940;2023-05-07T02:29:29;8.37;;;7.57;;
54983;SDS011;40884;53.562;9.940;2023-05-07T02:30:29;9.93;;;8.90;;
54983;SDS011;40884;53.562;9.940;2023-05-07T02:31:31;9.53;;;8.63;;
54983;SDS011;40884;53.562;9.940;2023-05-07T02:32:32;8.90;;;8.00;;
54983;SDS011;40884;53.562;9.940;2023-05-07T02:33:32;9.60;;;8.67;;
54983;SDS011;40884;53.562;9.940;2023-05-07T02:34:33;9.73;;;8.70;;
54983;SDS011;40884;53.562;9.940;2023-05-07T02:35:33;8.77;;;7.87;;
54983;SDS011;40884;53.562;9.940;2023-05-07T02:36:33;9.83;;;8.83;;
54983;SDS011;40884;53.562;9.940;2023-05-07T02:37:41;11.40;;;8.97;;
54983;SDS011;40884;53.562;9.940;2023-05-07T02:38:41;9.53;;;8.53;;
54983;SDS011;40884;53.562;9.940;2023-05-07T02:39:42;12.20;;;8.63;;
54983;SDS011;40884;53.562;9.940;2023-05-07T02:40:42;9.30;;;8.30;;
54983;SDS011;40884;53.562;9.940;2023-05-07T02:41:42;9.10;;;8.20;;
54983;SDS011;40884;53.562;9.940;2023-05-07T02:42:42;9.93;;;8.53;;
54983;SDS011;40884;53.562;9.940;2023-05-07T02:43:42;8.87;;;8.03;;
54983;SDS011;40884;53.562;9.940;2023-05-07T02:44:43;8.90;;;8.00;;
54983;SDS011;40884;53.562;9.940;2023-05-07T02:45:44;8.87;;;7.97;;
54983;SDS011;40884;53.562;9.940;2023-05-07T02:46:44;8.83;;;7.93;;
54983;SDS011;40884;53.562;9.940;2023-05-07T02:47:46;11.63;;;8.37;;
54983;SDS011;40884;53.562;9.940;2023-05-07T02:48:46;10.80;;;8.30;;
54983;SDS011;40884;53.562;9.940;2023-05-07T02:49:46;10.03;;;8.47;;
54983;SDS011;40884;53.562;9.940;2023-05-07T02:50:47;9.00;;;8.10;;
54983;SDS011;40884;53.562;9.940;2023-05-07T02:51:48;9.37;;;8.40;;
54983;SDS011;40884;53.562;9.940;2023-05-07T02:52:54;9.43;;;8.43;;
54983;SDS011;40884;53.562;9.940;2023-05-07T02:53:54;10.47;;;8.73;;
54983;SDS011;40884;53.562;9.940;2023-05-07T02:54:55;9.27;;;8.37;;
54983;SDS011;40884;53.562;9.940;2023-05-07T02:55:55;9.87;;;8.07;;
54983;SDS011;40884;53.562;9.940;2023-05-07T02:56:56;10.27;;;9.23;;
54983;SDS011;40884;53.562;9.940;2023-05-07T02:57:56;9.40;;;8.30;;
54983;SDS011;40884;53.562;9.940;2023-05-07T02:58:57;9.77;;;8.47;;
54983;SDS011;40884;53.562;9.940;2023-05-07T03:00:09;10.17;;;9.17;;
54983;SDS011;40884;53.562;9.940;2023-05-07T03:01:09;9.93;;;8.50;;
54983;SDS011;40884;53.562;9.940;2023-05-07T03:02:19;9.53;;;8.57;;
54983;SDS011;40884;53.562;9.940;2023-05-07T03:03:19;9.37;;;8.47;;
54983;SDS011;40884;53.562;9.940;2023-05-07T03:04:19;10.63;;;8.30;;
54983;SDS011;40884;53.562;9.940;2023-05-07T03:05:19;9.97;;;8.80;;
54983;SDS011;40884;53.562;9.940;2023-05-07T03:06:19;9.73;;;8.73;;
54983;SDS011;40884;53.562;9.940;2023-05-07T03:07:19;9.47;;;8.00;;
54983;SDS011;40884;53.562;9.940;2023-05-07T03:08:19;9.40;;;8.47;;
54983;SDS011;40884;53.562;9.940;2023-05-07T03:09:19;9.90;;;8.90;;
54983;SDS011;40884;53.562;9.940;2023-05-07T03:10:20;9.63;;;8.60;;
54983;SDS011;40884;53.562;9.940;2023-05-07T03:11:20;9.77;;;8.67;;
54983;SDS011;40884;53.562;9.940;2023-05-07T03:12:20;9.23;;;8.33;;
54983;SDS011;40884;53.562;9.940;2023-05-07T03:13:20;9.20;;;8.20;;
54983;SDS011;40884;53.562;9.940;2023-05-07T03:14:21;8.73;;;7.27;;
54983;SDS011;40884;53.562;9.940;2023-05-07T03:15:21;11.30;;;9.10;;
54983;SDS011;40884;53.562;9.940;2023-05-07T03:16:21;10.07;;;8.53;;
54983;SDS011;40884;53.562;9.940;2023-05-07T03:17:21;9.50;;;8.30;;
54983;SDS011;40884;53.562;9.940;2023-05-07T03:18:21;9.63;;;8.40;;
54983;SDS011;40884;53.562;9.940;2023-05-07T03:19:22;9.80;;;8.80;;
54983;SDS011;40884;53.562;9.940;2023-05-07T03:20:22;9.90;;;8.53;;
54983;SDS011;40884;53.562;9.940;2023-05-07T03:21:22;11.53;;;9.17;;
54983;SDS011;40884;53.562;9.940;2023-05-07T03:22:22;9.63;;;8.60;;
54983;SDS011;40884;53.562;9.940;2023-05-07T03:23:22;10.23;;;9.00;;
54983;SDS011;40884;53.562;9.940;2023-05-07T03:24:22;10.70;;;9.17;;
54983;SDS011;40884;53.562;9.940;2023-05-07T03:25:22;9.50;;;8.50;;
54983;SDS011;40884;53.562;9.940;2023-05-07T03:26:23;11.27;;;8.80;;
54983;SDS011;40884;53.562;9.940;2023-05-07T03:27:23;10.73;;;9.63;;
54983;SDS011;40884;53.562;9.940;2023-05-07T03:28:26;11.57;;;9.90;;
54983;SDS011;40884;53.562;9.940;2023-05-07T03:29:31;11.33;;;10.13;;
54983;SDS011;40884;53.562;9.940;2023-05-07T03:30:31;11.70;;;9.97;;
54983;SDS011;40884;53.562;9.940;2023-05-07T03:31:32;11.17;;;9.97;;
54983;SDS011;40884;53.562;9.940;2023-05-07T03:32:33;10.30;;;9.20;;
54983;SDS011;40884;53.562;9.940;2023-05-07T03:33:33;10.30;;;9.13;;
54983;SDS011;40884;53.562;9.940;2023-05-07T03:34:34;12.17;;;10.07;;
54983;SDS011;40884;53.562;9.940;2023-05-07T03:35:34;11.30;;;10.03;;
54983;SDS011;40884;53.562;9.940;2023-05-07T03:36:34;10.47;;;9.40;;
54983;SDS011;40884;53.562;9.940;2023-05-07T03:37:34;10.70;;;9.70;;
54983;SDS011;40884;53.562;9.940;2023-05-07T03:38:34;12.70;;;9.23;;
54983;SDS011;40884;53.562;9.940;2023-05-07T03:39:35;10.97;;;9.50;;
54983;SDS011;40884;53.562;9.940;2023-05-07T03:40:35;10.83;;;9.00;;
54983;SDS011;40884;53.562;9.940;2023-05-07T03:41:36;10.60;;;9.47;;
54983;SDS011;40884;53.562;9.940;2023-05-07T03:42:36;11.07;;;9.97;;
54983;SDS011;40884;53.562;9.940;2023-05-07T03:43:37;10.53;;;9.43;;
54983;SDS011;40884;53.562;9.940;2023-05-07T03:44:41;10.50;;;9.33;;
54983;SDS011;40884;53.562;9.940;2023-05-07T03:45:41;10.20;;;9.10;;
54983;SDS011;40884;53.562;9.940;2023-05-07T03:46:55;10.20;;;9.20;;
54983;SDS011;40884;53.562;9.940;2023-05-07T03:47:55;10.63;;;9.53;;
54983;SDS011;40884;53.562;9.940;2023-05-07T03:48:56;9.80;;;8.80;;
54983;SDS011;40884;53.562;9.940;2023-05-07T03:49:56;9.70;;;8.80;;
54983;SDS011;40884;53.562;9.940;2023-05-07T03:50:58;11.20;;;8.70;;
54983;SDS011;40884;53.562;9.940;2023-05-07T03:51:59;11.10;;;8.77;;
54983;SDS011;40884;53.562;9.940;2023-05-07T03:52:59;10.30;;;9.00;;
54983;SDS011;40884;53.562;9.940;2023-05-07T03:53:59;9.67;;;8.67;;
54983;SDS011;40884;53.562;9.940;2023-05-07T03:55:01;8.83;;;7.33;;
54983;SDS011;40884;53.562;9.940;2023-05-07T03:56:02;9.93;;;8.97;;
54983;SDS011;40884;53.562;9.940;2023-05-07T03:57:06;10.17;;;8.40;;
54983;SDS011;40884;53.562;9.940;2023-05-07T03:58:06;8.50;;;7.70;;
54983;SDS011;40884;53.562;9.940;2023-05-07T03:59:07;9.90;;;8.90;;
54983;SDS011;40884;53.562;9.940;2023-05-07T04:00:08;9.13;;;8.23;;
54983;SDS011;40884;53.562;9.940;2023-05-07T04:01:20;9.60;;;8.60;;
54983;SDS011;40884;53.562;9.940;2023-05-07T04:02:21;9.47;;;8.47;;
54983;SDS011;40884;53.562;9.940;2023-05-07T04:03:21;9.67;;;8.67;;
54983;SDS011;40884;53.562;9.940;2023-05-07T04:04:21;10.13;;;9.10;;
54983;SDS011;40884;53.562;9.940;2023-05-07T04:05:22;9.97;;;8.97;;
54983;SDS011;40884;53.562;9.940;2023-05-07T04:06:25;11.57;;;8.53;;
54983;SDS011;40884;53.562;9.940;2023-05-07T04:07:25;10.37;;;9.37;;
54983;SDS011;40884;53.562;9.940;2023-05-07T04:08:25;10.40;;;9.40;;
54983;SDS011;40884;53.562;9.940;2023-05-07T04:09:28;11.17;;;9.20;;
54983;SDS011;40884;53.562;9.940;2023-05-07T04:10:30;9.90;;;8.90;;
54983;SDS011;40884;53.562;9.940;2023-05-07T04:11:31;9.57;;;8.23;;
54983;SDS011;40884;53.562;9.940;2023-05-07T04:12:31;9.53;;;8.50;;
54983;SDS011;40884;53.562;9.940;2023-05-07T04:13:33;9.93;;;8.73;;
54983;SDS011;40884;53.562;9.940;2023-05-07T04:14:35;10.30;;;9.30;;
54983;SDS011;40884;53.562;9.940;2023-05-07T04:15:36;9.63;;;8.63;;
54983;SDS011;40884;53.562;9.940;2023-05-07T04:16:36;9.47;;;8.57;;
54983;SDS011;40884;53.562;9.940;2023-05-07T04:17:36;9.57;;;8.67;;
54983;SDS011;40884;53.562;9.940;2023-05-07T04:18:37;9.30;;;8.37;;
54983;SDS011;40884;53.562;9.940;2023-05-07T04:19:38;10.37;;;8.90;;
54983;SDS011;40884;53.562;9.940;2023-05-07T04:20:38;9.23;;;8.33;;
54983;SDS011;40884;53.562;9.940;2023-05-07T04:21:41;10.17;;;9.17;;
54983;SDS011;40884;53.562;9.940;2023-05-07T04:22:42;10.73;;;8.73;;
54983;SDS011;40884;53.562;9.940;2023-05-07T04:23:42;9.37;;;8.33;;
54983;SDS011;40884;53.562;9.940;2023-05-07T04:24:44;9.23;;;8.30;;
54983;SDS011;40884;53.562;9.940;2023-05-07T04:25:46;9.37;;;8.40;;
54983;SDS011;40884;53.562;9.940;2023-05-07T04:27:00;9.43;;;8.30;;
54983;SDS011;40884;53.562;9.940;2023-05-07T04:28:00;10.90;;;8.53;;
54983;SDS011;40884;53.562;9.940;2023-05-07T04:29:02;10.03;;;8.80;;
54983;SDS011;40884;53.562;9.940;2023-05-07T04:30:06;9.27;;;8.33;;
54983;SDS011;40884;53.562;9.940;2023-05-07T04:31:11;9.07;;;8.13;;
54983;SDS011;40884;53.562;9.940;2023-05-07T04:32:12;8.77;;;7.97;;
54983;SDS011;40884;53.562;9.940;2023-05-07T04:33:14;11.83;;;9.13;;
54983;SDS011;40884;53.562;9.940;2023-05-07T04:34:15;9.57;;;8.63;;
54983;SDS011;40884;53.562;9.940;2023-05-07T04:35:16;9.53;;;8.50;;
54983;SDS011;40884;53.562;9.940;2023-05-07T04:36:16;9.33;;;8.30;;
54983;SDS011;40884;53.562;9.940;2023-05-07T04:37:25;9.40;;;8.50;;
54983;SDS011;40884;53.562;9.940;2023-05-07T04:38:26;9.90;;;8.90;;
54983;SDS011;40884;53.562;9.940;2023-05-07T04:39:27;12.13;;;9.00;;
54983;SDS011;40884;53.562;9.940;2023-05-07T04:40:28;9.83;;;8.40;;
54983;SDS011;40884;53.562;9.940;2023-05-07T04:41:28;10.07;;;9.07;;
54983;SDS011;40884;53.562;9.940;2023-05-07T04:42:28;9.53;;;8.63;;
54983;SDS011;40884;53.562;9.940;2023-05-07T04:43:29;9.60;;;8.60;;
54983;SDS011;40884;53.562;9.940;2023-05-07T04:44:29;9.27;;;8.37;;
54983;SDS011;40884;53.562;9.940;2023-05-07T04:45:29;9.13;;;8.23;;
54983;SDS011;40884;53.562;9.940;2023-05-07T04:46:30;9.97;;;8.53;;
54983;SDS011;40884;53.562;9.940;2023-05-07T04:47:31;10.30;;;8.73;;
54983;SDS011;40884;53.562;9.940;2023-05-07T04:48:32;11.07;;;9.37;;
54983;SDS011;40884;53.562;9.940;2023-05-07T04:49:33;9.93;;;8.90;;
54983;SDS011;40884;53.562;9.940;2023-05-07T04:50:33;9.70;;;8.70;;
54983;SDS011;40884;53.562;9.940;2023-05-07T04:51:36;9.57;;;8.57;;
54983;SDS011;40884;53.562;9.940;2023-05-07T04:52:36;10.10;;;8.77;;
54983;SDS011;40884;53.562;9.940;2023-05-07T04:53:37;9.53;;;8.53;;
54983;SDS011;40884;53.562;9.940;2023-05-07T04:54:37;9.40;;;8.43;;
54983;SDS011;40884;53.562;9.940;2023-05-07T04:55:38;8.90;;;8.00;;
54983;SDS011;40884;53.562;9.940;2023-05-07T04:56:38;9.57;;;8.60;;
54983;SDS011;40884;53.562;9.940;2023-05-07T04:57:38;9.80;;;8.77;;
54983;SDS011;40884;53.562;9.940;2023-05-07T04:58:38;8.73;;;7.80;;
54983;SDS011;40884;53.562;9.940;2023-05-07T04:59:39;9.07;;;8.13;;
54983;SDS011;40884;53.562;9.940;2023-05-07T05:00:40;9.87;;;8.67;;
54983;SDS011;40884;53.562;9.940;2023-05-07T05:01:41;8.53;;;7.73;;
54983;SDS011;40884;53.562;9.940;2023-05-07T05:02:41;8.40;;;7.57;;
54983;SDS011;40884;53.562;9.940;2023-05-07T05:03:42;9.03;;;8.13;;
54983;SDS011;40884;53.562;9.940;2023-05-07T05:04:42;9.13;;;8.23;;
54983;SDS011;40884;53.562;9.940;2023-05-07T05:05:42;9.37;;;8.10;;
54983;SDS011;40884;53.562;9.940;2023-05-07T05:06:42;9.13;;;8.23;;
54983;SDS011;40884;53.562;9.940;2023-05-07T05:07:44;9.40;;;8.03;;
54983;SDS011;40884;53.562;9.940;2023-05-07T05:08:45;8.90;;;8.00;;
54983;SDS011;40884;53.562;9.940;2023-05-07T05:09:45;9.17;;;8.27;;
54983;SDS011;40884;53.562;9.940;2023-05-07T05:10:45;9.43;;;8.47;;
54983;SDS011;40884;53.562;9.940;2023-05-07T05:11:45;9.60;;;7.97;;
54983;SDS011;40884;53.562;9.940;2023-05-07T05:12:45;9.53;;;8.30;;
54983;SDS011;40884;53.562;9.940;2023-05-07T05:13:45;8.57;;;7.67;;
54983;SDS011;40884;53.562;9.940;2023-05-07T05:14:50;9.23;;;8.17;;
54983;SDS011;40884;53.562;9.940;2023-05-07T05:15:51;8.60;;;7.67;;
54983;SDS011;40884;53.562;9.940;2023-05-07T05:16:51;8.97;;;8.10;;
54983;SDS011;40884;53.562;9.940;2023-05-07T05:17:51;9.37;;;8.17;;
54983;SDS011;40884;53.562;9.940;2023-05-07T05:18:52;9.00;;;8.10;;
54983;SDS011;40884;53.562;9.940;2023-05-07T05:19:53;9.00;;;8.10;;
54983;SDS011;40884;53.562;9.940;2023-05-07T05:20:53;9.10;;;8.20;;
54983;SDS011;40884;53.562;9.940;2023-05-07T05:21:53;8.80;;;7.90;;
54983;SDS011;40884;53.562;9.940;2023-05-07T05:22:54;8.60;;;7.73;;
54983;SDS011;40884;53.562;9.940;2023-05-07T05:23:54;8.70;;;7.80;;
54983;SDS011;40884;53.562;9.940;2023-05-07T05:24:57;9.03;;;7.90;;
54983;SDS011;40884;53.562;9.940;2023-05-07T05:25:57;9.03;;;7.73;;
54983;SDS011;40884;53.562;9.940;2023-05-07T05:27:00;8.90;;;8.00;;
54983;SDS011;40884;53.562;9.940;2023-05-07T05:28:00;8.87;;;7.97;;
54983;SDS011;40884;53.562;9.940;2023-05-07T05:29:00;8.17;;;7.37;;
54983;SDS011;40884;53.562;9.940;2023-05-07T05:30:03;8.47;;;7.67;;
54983;SDS011;40884;53.562;9.940;2023-05-07T05:31:04;8.57;;;7.17;;
54983;SDS011;40884;53.562;9.940;2023-05-07T05:32:08;8.97;;;8.10;;
54983;SDS011;40884;53.562;9.940;2023-05-07T05:33:08;9.73;;;7.73;;
54983;SDS011;40884;53.562;9.940;2023-05-07T05:34:08;8.27;;;7.50;;
54983;SDS011;40884;53.562;9.940;2023-05-07T05:35:10;8.67;;;7.83;;
54983;SDS011;40884;53.562;9.940;2023-05-07T05:36:10;8.20;;;7.40;;
54983;SDS011;40884;53.562;9.940;2023-05-07T05:37:11;8.33;;;7.37;;
54983;SDS011;40884;53.562;9.940;2023-05-07T05:38:11;8.47;;;7.57;;
54983;SDS011;40884;53.562;9.940;2023-05-07T05:39:12;9.80;;;8.47;;
54983;SDS011;40884;53.562;9.940;2023-05-07T05:40:12;8.93;;;8.03;;
54983;SDS011;40884;53.562;9.940;2023-05-07T05:41:12;8.40;;;7.60;;
54983;SDS011;40884;53.562;9.940;2023-05-07T05:42:13;9.17;;;7.97;;
54983;SDS011;40884;53.562;9.940;2023-05-07T05:43:13;8.50;;;7.67;;
54983;SDS011;40884;53.562;9.940;2023-05-07T05:44:13;8.53;;;7.67;;
54983;SDS011;40884;53.562;9.940;2023-05-07T05:45:15;9.27;;;7.67;;
54983;SDS011;40884;53.562;9.940;2023-05-07T05:46:16;8.47;;;7.67;;
54983;SDS011;40884;53.562;9.940;2023-05-07T05:47:16;9.17;;;8.20;;
54983;SDS011;40884;53.562;9.940;2023-05-07T05:48:16;8.73;;;7.80;;
54983;SDS011;40884;53.562;9.940;2023-05-07T05:49:17;8.37;;;7.30;;
54983;SDS011;40884;53.562;9.940;2023-05-07T05:50:17;8.90;;;7.97;;
54983;SDS011;40884;53.562;9.940;2023-05-07T05:51:17;9.23;;;7.87;;
54983;SDS011;40884;53.562;9.940;2023-05-07T05:52:19;8.63;;;7.80;;
54983;SDS011;40884;53.562;9.940;2023-05-07T05:53:20;8.63;;;7.67;;
54983;SDS011;40884;53.562;9.940;2023-05-07T05:54:20;8.17;;;7.37;;
54983;SDS011;40884;53.562;9.940;2023-05-07T05:55:21;8.53;;;7.70;;
54983;SDS011;40884;53.562;9.940;2023-05-07T05:56:21;9.03;;;8.13;;
54983;SDS011;40884;53.562;9.940;2023-05-07T05:57:21;9.50;;;7.70;;
54983;SDS011;40884;53.562;9.940;2023-05-07T05:58:21;8.87;;;7.60;;
54983;SDS011;40884;53.562;9.940;2023-05-07T05:59:27;8.50;;;7.60;;
54983;SDS011;40884;53.562;9.940;2023-05-07T06:00:28;8.27;;;7.47;;
54983;SDS011;40884;53.562;9.940;2023-05-07T06:01:34;8.43;;;7.63;;
54983;SDS011;40884;53.562;9.940;2023-05-07T06:02:36;7.70;;;6.90;;
54983;SDS011;40884;53.562;9.940;2023-05-07T06:03:37;7.90;;;7.10;;
54983;SDS011;40884;53.562;9.940;2023-05-07T06:04:42;9.80;;;8.23;;
54983;SDS011;40884;53.562;9.940;2023-05-07T06:05:42;8.50;;;7.60;;
54983;SDS011;40884;53.562;9.940;2023-05-07T06:06:42;9.20;;;7.70;;